createdAt,value
2022-12-04T00:01:29.633Z,74.70
2022-12-04T00:04:02.317Z,77.18
2022-12-04T00:06:30.618Z,67.07
2022-12-04T00:09:08.940Z,71.72
2022-12-04T00:11:39.008Z,68.88
2022-12-04T00:14:07.580Z,65.68
2022-12-04T00:16:36.013Z,68.65
2022-12-04T00:19:04.397Z,69.75
2022-12-04T00:21:32.203Z,70.05
2022-12-04T00:23:59.790Z,67.97
2022-12-04T00:26:31.275Z,63.83
2022-12-04T00:28:59.001Z,74.22
2022-12-04T00:31:30.449Z,64.03
2022-12-04T00:33:58.883Z,67.18
2022-12-04T00:36:30.363Z,66.15
2022-12-04T00:39:00.715Z,67.82
2022-12-04T00:41:30.936Z,66.93
2022-12-04T00:44:03.940Z,65.95
2022-12-04T00:46:34.183Z,70.32
2022-12-04T00:49:02.768Z,68.57
2022-12-04T00:51:31.287Z,71.90
2022-12-04T00:54:02.820Z,62.40
2022-12-04T00:56:31.148Z,64.90
2022-12-04T00:59:01.947Z,60.28
2022-12-04T01:01:30.695Z,64.70
2022-12-04T01:03:57.922Z,66.88
2022-12-04T01:06:35.114Z,61.28
2022-12-04T01:09:06.146Z,58.50
2022-12-04T01:11:33.444Z,65.47
2022-12-04T01:14:01.020Z,72.97
2022-12-04T01:16:34.296Z,71.57
2022-12-04T01:19:02.915Z,66.40
2022-12-04T01:21:30.153Z,68.55
2022-12-04T01:23:59.352Z,68.13
2022-12-04T01:26:27.845Z,68.80
2022-12-04T01:28:55.577Z,67.38
2022-12-04T01:31:23.975Z,68.10
2022-12-04T01:33:51.926Z,65.97
2022-12-04T01:36:26.046Z,71.25
2022-12-04T01:38:56.530Z,71.45
2022-12-04T01:41:28.095Z,70.15
2022-12-04T01:44:20.493Z,72.38
2022-12-04T01:46:57.821Z,69.57
2022-12-04T01:49:35.171Z,69.03
2022-12-04T01:52:10.412Z,64.85
2022-12-04T01:54:50.875Z,67.55
2022-12-04T01:57:24.950Z,67.57
2022-12-04T01:59:59.509Z,67.47
2022-12-04T02:02:35.896Z,61.17
2022-12-04T02:05:11.157Z,67.72
2022-12-04T02:07:46.460Z,60.13
2022-12-04T02:10:17.594Z,58.97
2022-12-04T02:12:58.244Z,59.80
2022-12-04T02:15:36.036Z,60.67
2022-12-04T02:18:30.419Z,63.53
2022-12-04T02:21:01.164Z,64.25
2022-12-04T02:24:21.805Z,60.92
2022-12-04T02:26:58.228Z,68.28
2022-12-04T02:30:03.865Z,59.92
2022-12-04T02:35:39.711Z,62.70
2022-12-04T02:38:33.258Z,59.33
2022-12-04T02:41:17.017Z,63.25
2022-12-04T02:43:55.642Z,60.10
2022-12-04T02:46:32.904Z,55.15
2022-12-04T02:49:10.379Z,59.65
2022-12-04T02:51:43.861Z,62.60
2022-12-04T02:54:49.219Z,59.20
2022-12-04T02:57:25.092Z,61.45
2022-12-04T02:59:57.860Z,59.70
2022-12-04T03:02:36.734Z,61.97
2022-12-04T03:05:13.246Z,57.50
2022-12-04T03:08:04.291Z,59.75
2022-12-04T03:10:46.273Z,55.22
2022-12-04T03:13:24.486Z,54.60
2022-12-04T03:16:10.483Z,54.80
2022-12-04T03:18:51.711Z,55.55
2022-12-04T03:21:27.201Z,51.75
2022-12-04T03:24:21.497Z,54.83
2022-12-04T03:27:08.160Z,55.92
2022-12-04T03:29:54.663Z,54.67
2022-12-04T03:32:28.340Z,54.40
2022-12-04T03:35:18.036Z,56.95
2022-12-04T03:38:01.523Z,51.72
2022-12-04T03:40:59.041Z,57.25
2022-12-04T03:43:34.646Z,54.15
2022-12-04T03:46:18.298Z,55.53
2022-12-04T03:48:58.243Z,55.75
2022-12-04T03:51:58.607Z,56.28
2022-12-04T03:54:37.125Z,54.55
2022-12-04T03:57:14.397Z,50.08
2022-12-04T04:00:08.909Z,53.15
2022-12-04T04:02:59.100Z,55.00
2022-12-04T04:05:30.447Z,52.90
2022-12-04T04:08:25.278Z,53.63
2022-12-04T04:11:15.339Z,53.95
2022-12-04T04:14:14.144Z,53.67
2022-12-04T04:17:10.328Z,54.08
2022-12-04T04:20:00.618Z,39.90
2022-12-04T04:22:49.403Z,48.63
2022-12-04T04:25:24.439Z,51.58
2022-12-04T04:27:58.952Z,51.78
2022-12-04T04:30:30.118Z,53.22
2022-12-04T04:33:17.637Z,47.13
2022-12-04T04:36:07.442Z,48.72
2022-12-04T04:39:03.620Z,55.25
2022-12-04T04:44:45.388Z,50.60
2022-12-04T04:47:32.811Z,49.63
2022-12-04T04:50:08.111Z,51.22
2022-12-04T04:52:39.350Z,51.95
2022-12-04T04:55:09.074Z,50.78
2022-12-04T04:57:40.462Z,45.83
2022-12-04T05:00:14.475Z,47.95
2022-12-04T05:02:42.361Z,47.45
2022-12-04T05:05:10.527Z,52.67
2022-12-04T05:07:37.701Z,50.85
2022-12-04T05:10:06.970Z,53.00
2022-12-04T05:12:34.790Z,45.22
2022-12-04T05:15:02.910Z,47.50
2022-12-04T05:17:30.556Z,47.38
2022-12-04T05:20:01.551Z,49.50
2022-12-04T05:22:37.865Z,47.55
2022-12-04T05:25:06.709Z,45.40
2022-12-04T05:27:34.347Z,46.38
2022-12-04T05:30:02.398Z,53.83
2022-12-04T05:32:30.782Z,44.63
2022-12-04T05:34:59.237Z,47.47
2022-12-04T05:37:29.539Z,46.13
2022-12-04T05:39:56.837Z,49.72
2022-12-04T05:42:23.819Z,53.38
2022-12-04T05:44:50.974Z,48.80
2022-12-04T05:47:18.025Z,49.75
2022-12-04T05:49:45.362Z,50.58
2022-12-04T05:52:12.847Z,50.65
2022-12-04T05:54:40.643Z,50.75
2022-12-04T05:57:08.088Z,43.38
2022-12-04T05:59:36.063Z,49.30
2022-12-04T06:02:03.330Z,50.63
2022-12-04T06:04:30.716Z,49.42
2022-12-04T06:06:58.002Z,48.00
2022-12-04T06:09:28.071Z,50.75
2022-12-04T06:11:58.484Z,46.45
2022-12-04T06:14:26.166Z,49.88
2022-12-04T06:16:54.403Z,49.38
2022-12-04T06:19:26.439Z,47.45
2022-12-04T06:21:56.908Z,48.33
2022-12-04T06:24:25.218Z,50.42
2022-12-04T06:27:26.189Z,43.13
2022-12-04T06:29:45.994Z,46.28
2022-12-04T06:32:16.490Z,46.90
2022-12-04T06:34:52.509Z,41.45
2022-12-04T06:37:23.149Z,43.38
2022-12-04T06:39:51.547Z,44.13
2022-12-04T06:42:19.532Z,46.28
2022-12-04T06:44:48.009Z,46.67
2022-12-04T06:47:15.512Z,48.38
2022-12-04T06:49:43.585Z,46.17
2022-12-04T06:52:10.953Z,44.08
2022-12-04T06:54:38.725Z,44.03
2022-12-04T06:57:06.178Z,43.22
2022-12-04T06:59:34.096Z,41.35
2022-12-04T07:02:01.732Z,43.17
2022-12-04T07:04:29.601Z,42.35
2022-12-04T07:06:57.895Z,45.97
2022-12-04T07:09:25.108Z,41.80
2022-12-04T07:11:55.044Z,43.33
2022-12-04T07:14:22.407Z,44.22
2022-12-04T07:16:50.262Z,40.92
2022-12-04T07:19:17.526Z,40.58
2022-12-04T07:21:45.067Z,43.20
2022-12-04T07:24:17.819Z,42.20
2022-12-04T07:26:45.969Z,41.20
2022-12-04T07:29:13.630Z,41.72
2022-12-04T07:31:44.695Z,40.70
2022-12-04T07:34:12.646Z,45.83
2022-12-04T07:36:41.139Z,41.55
2022-12-04T07:39:08.727Z,43.03
2022-12-04T07:41:36.581Z,43.15
2022-12-04T07:44:04.085Z,42.08
2022-12-04T07:46:31.735Z,42.45
2022-12-04T07:49:00.009Z,43.00
2022-12-04T07:51:29.529Z,39.03
2022-12-04T07:54:02.633Z,46.60
2022-12-04T07:56:31.579Z,41.05
2022-12-04T07:59:00.460Z,42.95
2022-12-04T08:01:29.638Z,44.45
2022-12-04T08:03:59.608Z,43.50
2022-12-04T08:06:29.501Z,40.90
2022-12-04T08:08:57.577Z,45.53
2022-12-04T08:11:28.355Z,49.33
2022-12-04T08:14:02.590Z,40.00
2022-12-04T08:16:32.849Z,42.28
2022-12-04T08:19:01.072Z,46.15
2022-12-04T08:21:32.476Z,45.97
2022-12-04T08:24:01.863Z,45.08
2022-12-04T08:26:30.860Z,45.70
2022-12-04T08:28:58.485Z,46.67
2022-12-04T08:31:28.959Z,46.88
2022-12-04T08:33:59.455Z,41.90
2022-12-04T08:36:27.964Z,41.65
2022-12-04T08:38:56.225Z,41.97
2022-12-04T08:41:26.272Z,44.65
2022-12-04T08:43:56.030Z,46.17
2022-12-04T08:46:26.548Z,47.88
2022-12-04T08:48:58.507Z,44.20
2022-12-04T08:51:30.368Z,39.88
2022-12-04T08:54:01.768Z,46.35
2022-12-04T08:56:32.430Z,48.67
2022-12-04T08:59:01.809Z,50.58
2022-12-04T09:01:30.678Z,49.55
2022-12-04T09:03:59.106Z,46.88
2022-12-04T09:06:26.596Z,47.15
2022-12-04T09:08:55.979Z,51.40
2022-12-04T09:11:26.776Z,48.83
2022-12-04T09:13:56.171Z,45.03
2022-12-04T09:16:27.525Z,49.47
2022-12-04T09:18:56.409Z,50.72
2022-12-04T09:21:25.645Z,46.50
2022-12-04T09:23:53.009Z,49.70
2022-12-04T09:26:32.750Z,49.65
2022-12-04T09:29:02.687Z,46.85
2022-12-04T09:31:30.639Z,51.88
2022-12-04T09:34:00.533Z,48.78
2022-12-04T09:36:32.680Z,46.20
2022-12-04T09:39:03.479Z,45.13
2022-12-04T09:41:37.325Z,45.67
2022-12-04T09:44:33.528Z,50.90
2022-12-04T09:47:01.050Z,50.58
2022-12-04T09:49:50.721Z,49.95
2022-12-04T09:53:02.605Z,51.78
2022-12-04T09:55:39.429Z,47.92
2022-12-04T09:58:15.326Z,49.92
2022-12-04T10:00:47.434Z,48.40
2022-12-04T10:03:27.228Z,48.03
2022-12-04T10:05:58.150Z,44.20
2022-12-04T10:08:39.648Z,50.92
2022-12-04T10:11:32.078Z,43.55
2022-12-04T10:14:03.511Z,47.50
2022-12-04T10:17:13.995Z,44.03
2022-12-04T10:20:27.381Z,44.53
2022-12-04T10:23:19.446Z,42.50
2022-12-04T10:25:50.636Z,41.10
2022-12-04T10:28:34.392Z,44.53
2022-12-04T10:31:04.881Z,42.33
2022-12-04T10:33:47.926Z,46.63
2022-12-04T10:36:25.624Z,42.83
2022-12-04T10:39:06.409Z,43.75
2022-12-04T10:42:20.678Z,49.55
2022-12-04T10:44:47.956Z,47.78
2022-12-04T10:47:14.930Z,44.33
2022-12-04T10:49:42.459Z,40.67
2022-12-04T10:52:13.295Z,43.58
2022-12-04T10:54:53.934Z,43.17
2022-12-04T10:57:45.729Z,44.05
2022-12-04T11:00:33.993Z,41.95
2022-12-04T11:03:27.207Z,39.55
2022-12-04T11:06:04.560Z,40.55
2022-12-04T11:08:54.099Z,37.22
2022-12-04T11:11:31.322Z,38.63
2022-12-04T11:14:08.250Z,44.50
2022-12-04T11:16:44.794Z,40.53
2022-12-04T11:19:28.402Z,44.17
2022-12-04T11:22:04.399Z,43.00
2022-12-04T11:24:38.519Z,44.17
2022-12-04T11:27:17.655Z,40.03
2022-12-04T11:29:48.222Z,42.90
2022-12-04T11:32:31.615Z,45.50
2022-12-04T11:35:08.217Z,39.65
2022-12-04T11:37:41.953Z,39.00
2022-12-04T11:40:19.867Z,41.83
2022-12-04T11:45:28.107Z,38.33
2022-12-04T11:48:03.053Z,37.80
2022-12-04T11:51:02.548Z,40.13
2022-12-04T11:54:03.961Z,35.35
2022-12-04T11:57:09.785Z,36.13
2022-12-04T12:02:51.065Z,39.10
2022-12-04T12:05:53.836Z,42.70
2022-12-04T12:08:26.741Z,43.28
2022-12-04T12:11:50.649Z,35.65
2022-12-04T12:14:46.357Z,40.40
2022-12-04T12:17:34.406Z,39.58
2022-12-04T12:20:32.999Z,42.25
2022-12-04T12:23:28.618Z,38.20
2022-12-04T12:26:11.404Z,36.40
2022-12-04T12:29:10.536Z,44.28
2022-12-04T12:32:30.214Z,38.00
2022-12-04T12:34:59.811Z,37.35
2022-12-04T12:37:56.260Z,37.72
2022-12-04T12:40:51.468Z,36.15
2022-12-04T12:43:31.706Z,44.95
2022-12-04T12:46:30.941Z,40.80
2022-12-04T12:49:14.044Z,38.85
2022-12-04T12:52:25.930Z,40.55
2022-12-04T12:55:03.498Z,57.83
2022-12-04T12:57:38.904Z,40.70
2022-12-04T13:00:24.601Z,40.15
2022-12-04T13:03:04.183Z,40.00
2022-12-04T13:05:43.332Z,38.15
2022-12-04T13:08:36.739Z,39.33
2022-12-04T13:11:17.204Z,40.70
2022-12-04T13:13:57.167Z,39.63
2022-12-04T13:16:38.154Z,40.67
2022-12-04T13:19:30.102Z,43.65
2022-12-04T13:22:21.065Z,40.58
2022-12-04T13:25:34.629Z,38.72
2022-12-04T13:28:44.638Z,38.85
2022-12-04T13:31:49.531Z,36.42
2022-12-04T13:35:20.669Z,32.78
2022-12-04T13:38:20.493Z,36.35
2022-12-04T13:40:57.026Z,39.33
2022-12-04T13:43:49.868Z,37.63
2022-12-04T13:46:40.562Z,37.78
2022-12-04T13:49:32.252Z,34.65
2022-12-04T13:52:06.602Z,41.53
2022-12-04T13:54:36.626Z,37.03
2022-12-04T13:57:12.598Z,37.60
2022-12-04T13:59:40.611Z,39.08
2022-12-04T14:02:35.797Z,37.80
2022-12-04T14:07:45.006Z,33.55
2022-12-04T14:10:15.234Z,36.67
2022-12-04T14:12:59.249Z,36.33
2022-12-04T14:15:42.260Z,35.58
2022-12-04T14:18:09.296Z,38.38
2022-12-04T14:20:38.546Z,33.55
2022-12-04T14:23:26.387Z,35.38
2022-12-04T14:25:58.140Z,36.25
2022-12-04T14:28:36.117Z,33.67
2022-12-04T14:31:22.432Z,35.55
2022-12-04T14:33:59.168Z,34.53
2022-12-04T14:36:37.936Z,38.05
2022-12-04T14:39:25.941Z,37.38
2022-12-04T14:42:05.617Z,35.45
2022-12-04T14:44:33.148Z,35.30
2022-12-04T14:47:29.737Z,37.60
2022-12-04T14:50:42.353Z,38.55
2022-12-04T14:53:18.106Z,35.97
2022-12-04T14:56:24.638Z,33.15
2022-12-04T14:58:52.530Z,34.00
2022-12-04T15:01:28.971Z,45.17
2022-12-04T15:04:08.095Z,37.10
2022-12-04T15:06:35.933Z,32.75
2022-12-04T15:09:32.606Z,36.15
2022-12-04T15:12:20.700Z,35.67
2022-12-04T15:14:51.380Z,33.90
2022-12-04T15:17:19.094Z,36.92
2022-12-04T15:19:47.026Z,36.47
2022-12-04T15:22:30.698Z,31.80
2022-12-04T15:24:58.950Z,31.63
2022-12-04T15:27:32.456Z,36.58
2022-12-04T15:30:02.796Z,35.67
2022-12-04T15:32:32.767Z,35.83
2022-12-04T15:35:09.658Z,33.38
2022-12-04T15:37:38.179Z,30.80
2022-12-04T15:40:08.579Z,31.67
2022-12-04T15:42:35.923Z,32.08
2022-12-04T15:45:26.316Z,35.70
2022-12-04T15:47:54.385Z,29.80
2022-12-04T15:50:29.520Z,35.42
2022-12-04T15:55:49.003Z,31.63
2022-12-04T15:58:29.291Z,33.92
2022-12-04T16:01:09.665Z,32.25
2022-12-04T16:03:49.587Z,32.17
2022-12-04T16:06:33.777Z,34.53
2022-12-04T16:09:26.674Z,33.55
2022-12-04T16:12:25.743Z,33.20
2022-12-04T16:14:55.950Z,37.63
2022-12-04T16:17:31.759Z,33.25
2022-12-04T16:20:00.537Z,31.70
2022-12-04T16:22:30.184Z,33.88
2022-12-04T16:24:57.740Z,35.63
2022-12-04T16:27:26.040Z,34.15
2022-12-04T16:29:53.537Z,32.97
2022-12-04T16:32:28.133Z,33.00
2022-12-04T16:34:55.899Z,38.10
2022-12-04T16:37:27.103Z,31.40
2022-12-04T16:39:54.720Z,36.17
2022-12-04T16:42:29.818Z,33.03
2022-12-04T16:45:00.881Z,30.55
2022-12-04T16:47:29.130Z,32.58
2022-12-04T16:49:58.923Z,37.20
2022-12-04T16:52:26.159Z,33.28
2022-12-04T16:54:53.400Z,31.65
2022-12-04T16:57:20.640Z,32.05
2022-12-04T16:59:47.766Z,30.65
2022-12-04T17:02:27.762Z,29.65
2022-12-04T17:04:57.858Z,31.75
2022-12-04T17:07:26.753Z,33.25
2022-12-04T17:09:53.537Z,29.45
2022-12-04T17:12:20.650Z,31.80
2022-12-04T17:14:48.159Z,30.48
2022-12-04T17:17:16.840Z,26.80
2022-12-04T17:19:44.502Z,29.40
2022-12-04T17:22:14.532Z,29.02
2022-12-04T17:24:48.062Z,27.50
2022-12-04T17:27:17.635Z,32.70
2022-12-04T17:29:44.826Z,31.50
2022-12-04T17:32:12.034Z,29.02
2022-12-04T17:34:39.140Z,27.73
2022-12-04T17:37:06.307Z,27.77
2022-12-04T17:39:33.395Z,26.40
2022-12-04T17:42:00.733Z,27.88
2022-12-04T17:44:28.050Z,27.23
2022-12-04T17:46:55.794Z,25.50
2022-12-04T17:49:23.146Z,27.50
2022-12-04T17:51:52.634Z,26.17
2022-12-04T17:54:19.660Z,25.10
2022-12-04T17:56:50.335Z,25.05
2022-12-04T17:59:19.237Z,25.85
2022-12-04T18:01:47.000Z,27.60
2022-12-04T18:04:20.764Z,25.95
2022-12-04T18:06:48.550Z,29.75
2022-12-04T18:09:17.209Z,24.10
2022-12-04T18:11:47.588Z,23.13
2022-12-04T18:14:28.194Z,21.75
2022-12-04T18:17:01.545Z,26.08
2022-12-04T18:19:30.979Z,24.70
2022-12-04T18:21:58.686Z,23.13
2022-12-04T18:24:27.292Z,24.17
2022-12-04T18:26:54.777Z,23.67
2022-12-04T18:29:25.445Z,22.98
2022-12-04T18:31:54.882Z,25.15
2022-12-04T18:34:22.898Z,22.13
2022-12-04T18:36:50.623Z,22.90
2022-12-04T18:39:24.944Z,22.52
2022-12-04T18:41:56.643Z,23.45
2022-12-04T18:44:26.142Z,36.67
2022-12-04T18:46:53.922Z,22.25
2022-12-04T18:49:21.408Z,22.58
2022-12-04T18:51:50.372Z,27.13
2022-12-04T18:54:23.475Z,20.95
2022-12-04T18:56:51.316Z,21.30
2022-12-04T18:59:29.294Z,23.17
2022-12-04T19:01:56.500Z,18.77
2022-12-04T19:04:25.918Z,23.30
2022-12-04T19:06:56.917Z,23.35
2022-12-04T19:10:01.994Z,22.77
2022-12-04T19:12:17.537Z,22.85
2022-12-04T19:14:49.116Z,22.70
2022-12-04T19:17:16.967Z,24.83
2022-12-04T19:19:44.497Z,23.42
2022-12-04T19:22:12.581Z,23.15
2022-12-04T19:24:40.137Z,23.35
2022-12-04T19:27:11.698Z,22.52
2022-12-04T19:29:43.563Z,22.08
2022-12-04T19:32:12.110Z,24.98
2022-12-04T19:34:40.243Z,22.83
2022-12-04T19:37:08.441Z,23.77
2022-12-04T19:39:35.917Z,27.77
2022-12-04T19:42:04.073Z,26.17
2022-12-04T19:47:21.591Z,28.77
2022-12-04T19:49:51.707Z,25.42
2022-12-04T19:52:19.172Z,27.48
2022-12-04T19:54:46.456Z,26.60
2022-12-04T19:57:14.893Z,27.73
2022-12-04T19:59:46.307Z,27.75
2022-12-04T20:02:17.352Z,28.60
2022-12-04T20:04:45.646Z,26.35
2022-12-04T20:07:13.548Z,25.75
2022-12-04T20:09:41.076Z,25.50
2022-12-04T20:12:08.844Z,27.38
2022-12-04T20:14:36.149Z,26.73
2022-12-04T20:17:05.305Z,27.52
2022-12-04T20:19:32.742Z,24.33
2022-12-04T20:22:00.454Z,26.42
2022-12-04T20:24:27.771Z,27.75
2022-12-04T20:26:55.631Z,27.67
2022-12-04T20:29:22.882Z,23.30
2022-12-04T20:31:50.716Z,24.75
2022-12-04T20:34:19.556Z,24.02
2022-12-04T20:36:48.955Z,24.85
2022-12-04T20:39:18.803Z,22.90
2022-12-04T20:41:48.019Z,21.92
2022-12-04T20:44:19.180Z,21.75
2022-12-04T20:46:48.066Z,25.80
2022-12-04T20:49:22.092Z,21.63
2022-12-04T20:51:52.108Z,23.27
2022-12-04T20:54:22.272Z,22.00
2022-12-04T20:56:52.958Z,23.00
2022-12-04T20:59:22.508Z,21.00
2022-12-04T21:01:51.606Z,23.45
2022-12-04T21:04:19.920Z,35.15
2022-12-04T21:06:47.548Z,51.13
2022-12-04T21:09:23.052Z,28.73
2022-12-04T21:11:54.041Z,26.90
2022-12-04T21:14:49.996Z,25.05
2022-12-04T21:17:23.526Z,23.85
2022-12-04T21:19:50.961Z,24.67
2022-12-04T21:22:19.829Z,25.20
2022-12-04T21:24:47.499Z,24.00
2022-12-04T21:27:20.671Z,25.40
2022-12-04T21:29:49.355Z,24.42
2022-12-04T21:32:19.329Z,22.08
2022-12-04T21:34:46.641Z,23.55
2022-12-04T21:37:14.142Z,22.00
2022-12-04T21:39:43.851Z,24.42
2022-12-04T21:42:29.702Z,21.88
2022-12-04T21:45:00.697Z,23.13
2022-12-04T21:47:31.546Z,23.45
2022-12-04T21:49:59.496Z,21.73
2022-12-04T21:52:26.994Z,20.92
2022-12-04T21:54:55.347Z,24.40
2022-12-04T21:57:23.800Z,20.80
2022-12-04T21:59:52.976Z,20.20
2022-12-04T22:02:21.587Z,21.50
2022-12-04T22:04:49.043Z,22.52
2022-12-04T22:07:16.734Z,22.05
2022-12-04T22:09:46.163Z,22.80
2022-12-04T22:12:41.299Z,20.20
2022-12-04T22:15:01.412Z,20.15
2022-12-04T22:17:35.389Z,21.00
2022-12-04T22:20:02.381Z,20.42
2022-12-04T22:22:29.930Z,19.45
2022-12-04T22:24:59.361Z,21.50
2022-12-04T22:27:28.378Z,19.23
2022-12-04T22:29:55.507Z,22.23
2022-12-04T22:32:22.826Z,19.80
2022-12-04T22:34:50.185Z,21.48
2022-12-04T22:37:17.539Z,20.67
2022-12-04T22:39:44.461Z,19.25
2022-12-04T22:42:11.532Z,22.30
2022-12-04T22:44:38.361Z,19.73
2022-12-04T22:47:05.870Z,22.23
2022-12-04T22:49:32.978Z,24.52
2022-12-04T22:52:03.374Z,21.38
2022-12-04T22:54:30.330Z,24.63
2022-12-04T22:56:57.521Z,23.95
2022-12-04T22:59:24.360Z,22.25
2022-12-04T23:01:51.694Z,21.48
2022-12-04T23:04:19.062Z,25.02
2022-12-04T23:06:48.911Z,20.65
2022-12-04T23:09:18.262Z,21.38
2022-12-04T23:11:50.738Z,22.65
2022-12-04T23:14:18.997Z,25.00
2022-12-04T23:16:47.391Z,21.60
2022-12-04T23:19:17.522Z,21.75
2022-12-04T23:21:45.700Z,21.05
2022-12-04T23:24:13.907Z,22.67
2022-12-04T23:26:47.154Z,24.30
2022-12-04T23:29:44.846Z,23.10
2022-12-04T23:32:03.998Z,23.02
2022-12-04T23:34:35.219Z,24.50
2022-12-04T23:37:03.227Z,19.92
2022-12-04T23:39:30.903Z,21.55
2022-12-04T23:41:58.768Z,21.02
2022-12-04T23:44:27.012Z,24.58
2022-12-04T23:46:54.700Z,23.55
2022-12-04T23:49:21.818Z,20.63
2022-12-04T23:51:49.235Z,21.92
2022-12-04T23:54:16.645Z,21.75
2022-12-04T23:56:44.232Z,20.85
2022-12-04T23:59:11.595Z,21.92
